Time;durP1;ratioP1;P1;durP2;ratioP2;P2;SDS_P1;SDS_P2;PMS_P1;PMS_P2;Temp;Humidity;BMP_temperature;BMP_pressure;BME280_temperature;BME280_humidity;BME280_pressure;Samples;Min_cycle;Max_cycle;Signal;HPM_P1;HPM_P2
2021/04/27 00:02:03;;;;;;;5.13;2.20;;;12.40;42.60;;;;;;5103625;28;27477;-52
2021/04/27 00:05:37;;;;;;;3.95;2.28;;;12.40;42.60;;;;;;5106092;28;27459;-51
2021/04/27 00:08:31;;;;;;;5.50;2.63;;;12.40;42.40;;;;;;5105574;28;27907;-52
2021/04/27 00:11:44;;;;;;;4.00;2.50;;;12.30;42.20;;;;;;5102805;28;27404;-52
2021/04/27 00:15:12;;;;;;;5.03;2.63;;;12.30;42.10;;;;;;5106215;28;27366;-53
2021/04/27 00:18:23;;;;;;;3.42;2.42;;;12.20;41.80;;;;;;5105292;28;27565;-50
2021/04/27 00:21:50;;;;;;;6.88;2.42;;;12.30;41.90;;;;;;5104805;28;27973;-51
2021/04/27 00:25:37;;;;;;;8.23;2.60;;;12.20;41.80;;;;;;5105668;28;27473;-52
2021/04/27 00:28:54;;;;;;;5.25;2.40;;;12.20;42.20;;;;;;5101460;28;27470;-48
2021/04/27 00:31:38;;;;;;;4.32;2.10;;;12.10;42.80;;;;;;5105585;28;27453;-51
2021/04/27 00:35:06;;;;;;;3.03;1.90;;;12.10;43.50;;;;;;5105691;28;27614;-49
2021/04/27 00:38:50;;;;;;;4.60;2.20;;;12.00;43.10;;;;;;5105364;28;27481;-53
2021/04/27 00:42:13;;;;;;;10.13;2.63;;;12.00;43.00;;;;;;5105367;28;27400;-51
2021/04/27 00:45:42;;;;;;;4.30;2.20;;;12.00;43.20;;;;;;5102249;28;27411;-50
2021/04/27 00:49:10;;;;;;;6.03;2.10;;;11.90;42.90;;;;;;5104568;28;27322;-47
2021/04/27 00:53:10;;;;;;;8.65;2.10;;;11.80;43.30;;;;;;5102003;28;27395;-46
2021/04/27 00:56:18;;;;;;;4.60;1.88;;;11.70;43.80;;;;;;5104982;28;27389;-47
2021/04/27 00:59:38;;;;;;;3.53;2.10;;;11.60;43.80;;;;;;5103972;28;27420;-46
2021/04/27 01:03:09;;;;;;;4.07;2.25;;;11.60;44.20;;;;;;5102302;28;27529;-48
2021/04/27 01:06:35;;;;;;;5.60;2.15;;;11.50;44.10;;;;;;5104099;28;27426;-49
2021/04/27 01:10:06;;;;;;;2.97;2.17;;;11.50;44.50;;;;;;5102046;28;27398;-47
2021/04/27 01:13:14;;;;;;;3.45;2.35;;;11.40;44.60;;;;;;5102983;28;27332;-47
2021/04/27 01:16:13;;;;;;;4.28;2.10;;;11.40;44.80;;;;;;5104130;28;27404;-49
2021/04/27 01:19:38;;;;;;;4.40;2.22;;;11.30;44.90;;;;;;5086562;28;27504;-48
2021/04/27 01:23:08;;;;;;;3.33;2.30;;;11.30;45.10;;;;;;5100482;28;27444;-49
2021/04/27 01:26:28;;;;;;;4.38;2.70;;;11.20;45.20;;;;;;5100538;28;27384;-48
2021/04/27 01:29:28;;;;;;;5.10;2.80;;;11.20;45.30;;;;;;5101279;28;27625;-48
2021/04/27 01:32:38;;;;;;;5.30;2.15;;;11.10;45.50;;;;;;5086862;28;27325;-47
2021/04/27 01:36:06;;;;;;;4.40;2.10;;;11.10;45.60;;;;;;5088296;28;27495;-48
2021/04/27 01:39:52;;;;;;;3.40;2.17;;;11.00;46.40;;;;;;5103740;28;27644;-46
2021/04/27 01:43:20;;;;;;;4.25;2.40;;;10.90;45.70;;;;;;5101103;28;27376;-47
2021/04/27 01:47:29;;;;;;;3.47;2.22;;;10.90;45.90;;;;;;5100792;28;27391;-47
2021/04/27 01:50:41;;;;;;;2.78;2.25;;;10.80;46.00;;;;;;5103565;28;27601;-47
2021/04/27 01:53:57;;;;;;;5.70;2.00;;;10.70;46.20;;;;;;5102156;28;27513;-46
2021/04/27 01:57:00;;;;;;;2.85;1.98;;;10.70;46.40;;;;;;5100993;28;27954;-48
2021/04/27 02:00:27;;;;;;;5.00;1.85;;;10.60;46.40;;;;;;5100159;28;27525;-47
2021/04/27 02:04:10;;;;;;;5.53;3.17;;;10.60;46.70;;;;;;5103825;28;27535;-47
2021/04/27 02:08:08;;;;;;;4.25;2.83;;;10.50;46.70;;;;;;5100557;28;26926;-49
2021/04/27 02:11:22;;;;;;;5.40;2.75;;;10.50;46.60;;;;;;5102484;28;27439;-47
2021/04/27 02:14:51;;;;;;;5.05;2.50;;;10.40;46.80;;;;;;5099814;28;27536;-48
2021/04/27 02:18:22;;;;;;;4.03;2.85;;;10.40;47.00;;;;;;5103878;28;27327;-47
2021/04/27 02:21:18;;;;;;;3.90;2.60;;;10.30;47.10;;;;;;5102014;28;27496;-49
2021/04/27 02:24:43;;;;;;;5.78;2.90;;;10.20;47.30;;;;;;5102530;28;27469;-48
2021/04/27 02:27:54;;;;;;;3.90;2.72;;;10.20;48.10;;;;;;5070978;28;27491;-47
2021/04/27 02:31:02;;;;;;;4.38;2.88;;;10.10;47.60;;;;;;5102281;28;27596;-49
2021/04/27 02:34:00;;;;;;;8.13;3.00;;;10.10;47.60;;;;;;5101512;28;27654;-47
2021/04/27 02:37:12;;;;;;;10.32;3.13;;;10.00;47.90;;;;;;5085397;28;27950;-48
2021/04/27 02:40:26;;;;;;;5.70;3.13;;;10.00;47.90;;;;;;5085215;28;27497;-47
2021/04/27 02:43:35;;;;;;;8.98;3.47;;;9.90;47.90;;;;;;5086597;28;27588;-47
2021/04/27 02:47:03;;;;;;;6.05;3.83;;;9.90;48.00;;;;;;5102871;28;27453;-50
2021/04/27 02:50:42;;;;;;;5.35;3.10;;;9.80;48.20;;;;;;5100116;28;27324;-46
2021/04/27 02:54:10;;;;;;;7.38;3.22;;;9.70;48.40;;;;;;5102436;28;27478;-48
2021/04/27 02:58:13;;;;;;;4.47;3.13;;;9.70;48.50;;;;;;5100097;28;27454;-47
2021/04/27 03:01:25;;;;;;;4.60;2.92;;;9.60;48.60;;;;;;5100212;28;27423;-50
2021/04/27 03:04:38;;;;;;;6.82;2.85;;;9.60;48.70;;;;;;5100998;28;27317;-50
2021/04/27 03:08:33;;;;;;;5.05;2.85;;;9.50;48.80;;;;;;5099703;28;27465;-48
2021/04/27 03:11:58;;;;;;;3.40;2.60;;;9.50;48.90;;;;;;5099068;28;27418;-51
2021/04/27 03:15:26;;;;;;;4.00;2.92;;;9.40;49.10;;;;;;5099215;28;27328;-46
2021/04/27 03:18:54;;;;;;;5.28;3.20;;;9.30;49.10;;;;;;5099659;28;27496;-47
2021/04/27 03:22:09;;;;;;;4.38;2.63;;;9.20;49.40;;;;;;5099632;28;27372;-46
2021/04/27 03:25:36;;;;;;;5.45;2.58;;;9.20;49.60;;;;;;5099843;28;27439;-48
2021/04/27 03:28:42;;;;;;;3.88;2.72;;;9.10;49.90;;;;;;5098938;28;27367;-49
2021/04/27 03:31:48;;;;;;;5.25;2.17;;;9.00;50.20;;;;;;5099060;28;27379;-47
2021/04/27 03:34:53;;;;;;;5.43;2.88;;;9.00;50.10;;;;;;5098763;28;27406;-47
2021/04/27 03:38:24;;;;;;;3.45;2.13;;;8.90;50.20;;;;;;5102343;28;27374;-47
2021/04/27 03:41:53;;;;;;;6.38;2.10;;;8.80;50.30;;;;;;5105194;28;27314;-48
2021/04/27 03:45:35;;;;;;;5.05;2.20;;;8.70;50.50;;;;;;5102922;28;27820;-47
2021/04/27 03:48:48;;;;;;;4.70;2.63;;;8.60;50.70;;;;;;5102850;28;27376;-46
2021/04/27 03:52:02;;;;;;;2.35;2.05;;;8.50;50.90;;;;;;5103967;28;27427;-47
2021/04/27 03:55:09;;;;;;;3.28;2.20;;;8.50;51.20;;;;;;5102879;28;27450;-47
2021/04/27 03:58:07;;;;;;;2.58;2.03;;;8.40;51.40;;;;;;5073716;28;27474;-47
2021/04/27 04:01:05;;;;;;;11.05;2.65;;;8.30;51.60;;;;;;5087572;28;27344;-49
2021/04/27 04:04:19;;;;;;;5.57;2.65;;;8.30;51.60;;;;;;5106442;28;27485;-46
2021/04/27 04:07:55;;;;;;;6.00;2.30;;;8.20;51.90;;;;;;5102711;28;27379;-50
2021/04/27 04:11:02;;;;;;;3.10;2.50;;;8.10;52.20;;;;;;5101715;28;27805;-46
2021/04/27 04:14:08;;;;;;;5.22;2.40;;;8.10;52.20;;;;;;5101839;28;27451;-46
2021/04/27 04:17:39;;;;;;;5.00;2.58;;;8.10;52.40;;;;;;5104555;28;27376;-47
2021/04/27 04:20:52;;;;;;;4.18;2.58;;;8.10;52.40;;;;;;5104657;28;27457;-46
2021/04/27 04:24:51;;;;;;;4.40;2.10;;;8.10;52.30;;;;;;5103592;27;27398;-48
2021/04/27 04:28:24;;;;;;;6.75;2.67;;;8.10;52.60;;;;;;5102351;28;27372;-47
2021/04/27 04:31:36;;;;;;;6.43;2.35;;;8.10;52.50;;;;;;5101715;28;27412;-47
2021/04/27 04:35:07;;;;;;;4.15;2.60;;;8.10;52.60;;;;;;5105495;28;27449;-48
2021/04/27 04:38:37;;;;;;;2.60;2.22;;;8.10;52.60;;;;;;5104715;28;27599;-46
2021/04/27 04:42:11;;;;;;;3.58;2.35;;;8.00;52.70;;;;;;5104221;28;27574;-48
2021/04/27 04:45:36;;;;;;;7.38;2.65;;;8.00;52.90;;;;;;5086275;27;27638;-47
2021/04/27 04:49:02;;;;;;;6.72;2.22;;;8.00;53.00;;;;;;5092445;27;27454;-47
2021/04/27 04:52:51;;;;;;;4.47;2.55;;;8.00;53.20;;;;;;5101912;28;27836;-47
2021/04/27 04:56:35;;;;;;;4.43;2.53;;;8.00;53.30;;;;;;5101862;28;27454;-47
2021/04/27 05:00:03;;;;;;;4.25;2.65;;;7.90;53.50;;;;;;5086692;28;27437;-48
2021/04/27 05:03:26;;;;;;;4.50;2.50;;;7.90;53.70;;;;;;5101441;28;27333;-48
2021/04/27 05:07:15;;;;;;;4.95;2.53;;;7.90;54.00;;;;;;5105190;28;28042;-51
2021/04/27 05:10:51;;;;;;;6.30;3.78;;;7.80;54.00;;;;;;5104357;28;27478;-47
2021/04/27 05:14:10;;;;;;;3.53;2.28;;;7.80;54.20;;;;;;5103627;28;27508;-46
2021/04/27 05:17:26;;;;;;;5.70;2.35;;;7.80;54.30;;;;;;5102628;28;27510;-50
2021/04/27 05:20:31;;;;;;;3.08;2.38;;;7.80;54.40;;;;;;5104991;28;27493;-49
2021/04/27 05:23:38;;;;;;;4.18;2.75;;;7.80;54.30;;;;;;5100339;28;27427;-48
2021/04/27 05:26:49;;;;;;;4.30;2.75;;;7.90;54.50;;;;;;5100601;28;27470;-47
2021/04/27 05:30:02;;;;;;;3.00;2.38;;;7.90;54.50;;;;;;5100564;28;27333;-50
2021/04/27 05:33:30;;;;;;;3.75;2.45;;;7.90;54.50;;;;;;5104709;28;27386;-50
2021/04/27 05:37:05;;;;;;;3.25;2.25;;;8.00;54.60;;;;;;5103247;28;27502;-46
2021/04/27 05:40:17;;;;;;;4.10;2.50;;;8.10;54.60;;;;;;5104602;28;27468;-46
2021/04/27 05:43:45;;;;;;;6.22;2.63;;;8.20;54.50;;;;;;5103570;28;27387;-48
2021/04/27 05:47:05;;;;;;;5.05;3.22;;;8.20;54.50;;;;;;5104546;28;27977;-49
2021/04/27 05:49:51;;;;;;;4.85;2.88;;;8.30;54.80;;;;;;5103233;28;27580;-50
2021/04/27 05:52:36;;;;;;;4.47;3.00;;;8.40;54.90;;;;;;5104558;28;27430;-48
2021/04/27 05:55:29;;;;;;;8.30;3.33;;;8.50;54.00;;;;;;5104450;28;27364;-49
2021/04/27 05:58:44;;;;;;;6.55;2.83;;;8.50;54.50;;;;;;5102546;27;28402;-48
2021/04/27 06:02:11;;;;;;;5.72;2.88;;;8.60;54.90;;;;;;5103664;28;27416;-47
2021/04/27 06:05:16;;;;;;;5.60;3.45;;;8.70;54.70;;;;;;5103063;28;27643;-51
2021/04/27 06:08:29;;;;;;;8.55;3.75;;;8.80;55.10;;;;;;5104281;28;27339;-46
2021/04/27 06:11:35;;;;;;;9.20;3.50;;;8.90;54.50;;;;;;5103689;28;27977;-46
2021/04/27 06:15:02;;;;;;;7.70;3.75;;;9.00;55.10;;;;;;5104010;28;27388;-48
2021/04/27 06:18:48;;;;;;;9.18;3.38;;;9.10;54.30;;;;;;5103798;28;27416;-49
2021/04/27 06:21:46;;;;;;;7.55;4.28;;;9.20;54.10;;;;;;5103965;28;27333;-48
2021/04/27 06:24:59;;;;;;;8.55;3.78;;;9.40;53.00;;;;;;5100684;28;27428;-47
2021/04/27 06:28:14;;;;;;;7.55;3.47;;;9.60;52.70;;;;;;5103946;28;27408;-47
2021/04/27 06:31:27;;;;;;;8.20;3.38;;;10.00;52.60;;;;;;5099669;28;27445;-46
2021/04/27 06:34:20;;;;;;;7.30;3.60;;;10.50;51.10;;;;;;5100754;28;27422;-50
2021/04/27 06:37:27;;;;;;;7.80;3.95;;;10.90;51.20;;;;;;5099502;28;27414;-47
2021/04/27 06:40:32;;;;;;;6.85;3.90;;;11.40;50.50;;;;;;5103334;28;27402;-52
2021/04/27 06:43:43;;;;;;;10.18;4.32;;;11.80;49.80;;;;;;5103541;28;27485;-48
2021/04/27 06:47:11;;;;;;;5.30;3.42;;;12.10;47.80;;;;;;5103323;28;27580;-47
2021/04/27 06:50:39;;;;;;;5.97;3.35;;;12.30;47.60;;;;;;5101145;28;27410;-49
2021/04/27 06:54:07;;;;;;;8.52;5.53;;;12.60;46.90;;;;;;5099366;28;27393;-48
2021/04/27 06:57:39;;;;;;;7.85;4.40;;;12.90;46.50;;;;;;5101954;28;27554;-47
2021/04/27 07:00:25;;;;;;;10.27;4.80;;;13.20;46.10;;;;;;5101032;28;27394;-47
2021/04/27 07:03:34;;;;;;;7.22;4.18;;;13.60;45.50;;;;;;5103097;28;27435;-51
2021/04/27 07:06:34;;;;;;;7.10;4.30;;;14.00;45.50;;;;;;5099578;28;27477;-50
2021/04/27 07:10:05;;;;;;;6.10;3.97;;;14.40;44.60;;;;;;5100785;27;27419;-51
2021/04/27 07:13:03;;;;;;;10.88;4.40;;;14.80;43.90;;;;;;5106635;28;27438;-49
2021/04/27 07:16:30;;;;;;;10.77;3.92;;;15.20;43.40;;;;;;5107880;28;27402;-50
2021/04/27 07:19:41;;;;;;;8.40;3.80;;;15.50;42.50;;;;;;5107477;28;27390;-49
2021/04/27 07:23:08;;;;;;;5.57;4.20;;;15.70;41.80;;;;;;5107472;28;27383;-52
2021/04/27 07:26:12;;;;;;;10.05;4.75;;;16.00;41.60;;;;;;5103770;28;27323;-48
2021/04/27 07:28:58;;;;;;;7.80;4.10;;;16.30;41.30;;;;;;5106777;28;27337;-46
2021/04/27 07:32:27;;;;;;;8.65;3.95;;;16.50;41.60;;;;;;5107193;28;27340;-47
2021/04/27 07:35:20;;;;;;;4.82;3.83;;;16.60;41.10;;;;;;5107318;28;27411;-47
2021/04/27 07:38:48;;;;;;;5.35;4.10;;;16.80;40.80;;;;;;5107159;28;27394;-51
2021/04/27 07:41:52;;;;;;;5.85;4.07;;;17.10;41.20;;;;;;5107410;28;27328;-48
2021/04/27 07:45:09;;;;;;;11.20;4.28;;;17.30;40.90;;;;;;5106722;28;27485;-49
2021/04/27 07:48:22;;;;;;;9.07;4.90;;;17.50;40.90;;;;;;5107064;28;26915;-52
2021/04/27 07:51:55;;;;;;;16.08;4.30;;;17.70;39.80;;;;;;5105742;28;27407;-49
2021/04/27 07:55:16;;;;;;;9.73;4.28;;;18.10;40.40;;;;;;5104773;28;27497;-49
2021/04/27 07:58:29;;;;;;;5.00;4.03;;;18.50;40.90;;;;;;5106805;28;27344;-51
2021/04/27 08:01:56;;;;;;;6.70;4.20;;;19.00;40.80;;;;;;5107234;28;27476;-51
2021/04/27 08:05:14;;;;;;;6.45;4.18;;;19.50;39.00;;;;;;5106780;28;27464;-50
2021/04/27 08:08:27;;;;;;;9.18;4.15;;;19.90;38.50;;;;;;5107147;28;27406;-51
2021/04/27 08:11:40;;;;;;;10.05;5.03;;;20.30;34.70;;;;;;5103794;28;27395;-53
2021/04/27 08:15:07;;;;;;;10.57;5.30;;;20.60;36.40;;;;;;5106322;28;27435;-53
2021/04/27 08:18:19;;;;;;;7.00;4.70;;;20.80;34.90;;;;;;5106123;28;27600;-54
2021/04/27 08:21:48;;;;;;;8.07;4.88;;;21.10;33.40;;;;;;5102413;28;27402;-52
2021/04/27 08:25:00;;;;;;;7.40;4.85;;;21.10;34.70;;;;;;5106813;28;27423;-54
2021/04/27 08:28:07;;;;;;;7.88;4.97;;;21.20;34.40;;;;;;5106505;28;27465;-54
2021/04/27 08:31:33;;;;;;;8.30;5.18;;;21.20;33.10;;;;;;5106794;28;27398;-54
2021/04/27 08:34:20;;;;;;;9.90;5.55;;;21.30;33.20;;;;;;5106175;28;27400;-54
2021/04/27 08:37:47;;;;;;;6.70;4.38;;;21.50;33.60;;;;;;5102663;28;27349;-54
2021/04/27 08:40:59;;;;;;;9.32;5.47;;;21.60;33.80;;;;;;5105969;28;27425;-56
2021/04/27 08:43:57;;;;;;;8.38;4.93;;;21.70;32.50;;;;;;5105494;28;27430;-54
2021/04/27 08:47:24;;;;;;;10.02;4.93;;;21.80;31.60;;;;;;5106483;28;27479;-54
2021/04/27 08:50:38;;;;;;;7.32;5.03;;;21.90;31.50;;;;;;5104824;28;27445;-55
2021/04/27 08:53:35;;;;;;;8.60;4.72;;;22.00;33.30;;;;;;5106451;28;26867;-55
2021/04/27 08:56:49;;;;;;;6.82;4.95;;;22.10;32.30;;;;;;5105869;28;27475;-55
2021/04/27 09:00:07;;;;;;;13.18;5.30;;;22.20;32.00;;;;;;5106536;28;27476;-56
2021/04/27 09:03:22;;;;;;;8.48;4.93;;;22.40;33.30;;;;;;5106331;28;27415;-56
2021/04/27 09:06:45;;;;;;;8.25;4.97;;;22.60;33.70;;;;;;5103290;28;27346;-56
2021/04/27 09:10:01;;;;;;;9.50;5.00;;;22.90;31.70;;;;;;5106399;28;27374;-57
2021/04/27 09:13:15;;;;;;;6.00;4.80;;;23.10;30.30;;;;;;5106353;28;27398;-57
2021/04/27 09:16:01;;;;;;;9.82;4.88;;;23.40;31.70;;;;;;5104993;28;27549;-57
2021/04/27 09:19:24;;;;;;;11.75;4.82;;;23.50;31.80;;;;;;5105238;28;27371;-57
2021/04/27 09:22:24;;;;;;;6.63;4.97;;;23.80;31.50;;;;;;5106116;28;27411;-57
2021/04/27 09:25:37;;;;;;;6.20;4.45;;;24.00;30.20;;;;;;5106066;28;27343;-57
2021/04/27 09:29:16;;;;;;;9.02;5.30;;;23.90;28.30;;;;;;5105859;28;27406;-57
2021/04/27 09:32:34;;;;;;;6.70;5.03;;;23.80;29.00;;;;;;5105556;28;27416;-57
2021/04/27 09:35:35;;;;;;;6.68;4.75;;;23.70;28.90;;;;;;5105565;28;27403;-57
2021/04/27 09:38:30;;;;;;;8.75;5.50;;;23.60;28.60;;;;;;5105705;28;27403;-57
2021/04/27 09:41:36;;;;;;;7.35;5.35;;;23.50;29.10;;;;;;5105649;28;27318;-57
2021/04/27 09:44:50;;;;;;;6.60;4.55;;;23.50;28.90;;;;;;5105317;28;28050;-57
2021/04/27 09:48:17;;;;;;;9.77;5.00;;;23.50;30.40;;;;;;5105866;28;27448;-57
2021/04/27 09:51:34;;;;;;;8.18;4.88;;;23.60;29.20;;;;;;5105379;28;27792;-57
2021/04/27 09:55:10;;;;;;;5.90;4.95;;;23.60;30.00;;;;;;5105341;28;27506;-57
2021/04/27 09:58:37;;;;;;;9.60;5.00;;;24.00;30.90;;;;;;5097085;28;27448;-57
2021/04/27 10:02:33;;;;;;;7.10;5.45;;;24.20;31.50;;;;;;5105273;28;27397;-57
2021/04/27 10:06:41;;;;;;;8.70;4.97;;;24.50;29.50;;;;;;5101636;28;28029;-57
2021/04/27 10:09:38;;;;;;;6.50;5.60;;;24.50;30.30;;;;;;5105200;28;27505;-57
2021/04/27 10:12:47;;;;;;;7.70;4.93;;;24.60;31.40;;;;;;5104078;28;27468;-57
2021/04/27 10:15:49;;;;;;;8.10;5.75;;;24.70;29.90;;;;;;5104991;28;27376;-57
2021/04/27 10:18:54;;;;;;;9.77;6.13;;;24.50;28.70;;;;;;5105352;28;27849;-57
2021/04/27 10:22:21;;;;;;;14.65;5.82;;;24.40;29.80;;;;;;5105208;28;27426;-53
2021/04/27 10:25:35;;;;;;;8.23;6.00;;;24.30;27.50;;;;;;5104405;28;27388;-58
2021/04/27 10:28:54;;;;;;;9.85;5.25;;;24.10;24.00;;;;;;5104724;28;27454;-58
2021/04/27 10:32:22;;;;;;;8.27;6.03;;;23.80;22.50;;;;;;5104747;28;27489;-57
2021/04/27 10:35:28;;;;;;;8.07;5.20;;;23.70;24.60;;;;;;5104724;28;27479;-57
2021/04/27 10:38:43;;;;;;;7.68;6.35;;;23.70;28.00;;;;;;5104208;28;27341;-58
2021/04/27 10:41:52;;;;;;;7.28;5.35;;;23.50;26.10;;;;;;5104432;28;27473;-58
2021/04/27 10:44:59;;;;;;;7.85;5.65;;;23.40;29.50;;;;;;5104200;27;27391;-58
2021/04/27 10:48:13;;;;;;;7.43;5.70;;;23.40;30.40;;;;;;5101348;28;27439;-58
2021/04/27 10:51:23;;;;;;;11.93;5.97;;;23.40;33.20;;;;;;5101590;28;27393;-57
2021/04/27 10:54:37;;;;;;;9.07;6.45;;;23.50;26.20;;;;;;5104558;28;27398;-58
2021/04/27 10:58:07;;;;;;;8.13;5.25;;;23.60;28.80;;;;;;5103987;28;27413;-58
2021/04/27 11:01:27;;;;;;;8.52;5.25;;;23.70;30.80;;;;;;5104376;28;27374;-58
2021/04/27 11:04:50;;;;;;;5.22;4.60;;;23.80;32.00;;;;;;5104344;28;27466;-58
2021/04/27 11:08:25;;;;;;;9.63;5.75;;;23.80;30.90;;;;;;5101000;28;27352;-58
2021/04/27 11:11:30;;;;;;;7.28;5.05;;;23.80;31.90;;;;;;5103748;28;28054;-58
2021/04/27 11:14:36;;;;;;;9.75;5.38;;;23.80;32.50;;;;;;5104446;28;27332;-58
2021/04/27 11:17:32;;;;;;;8.48;5.82;;;23.70;32.30;;;;;;5103553;28;27427;-58
2021/04/27 11:20:50;;;;;;;9.38;4.88;;;23.60;30.80;;;;;;5104411;28;27344;-58
2021/04/27 11:23:52;;;;;;;7.22;5.05;;;23.50;32.00;;;;;;5103580;28;27477;-58
2021/04/27 11:27:02;;;;;;;4.80;4.32;;;23.50;32.50;;;;;;5104357;28;27476;-58
2021/04/27 11:30:31;;;;;;;5.85;4.90;;;23.50;35.50;;;;;;5103362;28;27421;-58
2021/04/27 11:33:56;;;;;;;8.25;5.88;;;23.50;34.80;;;;;;5103636;28;27394;-58
2021/04/27 11:37:10;;;;;;;8.48;5.20;;;23.60;34.00;;;;;;5104200;28;27414;-58
2021/04/27 11:40:24;;;;;;;5.30;4.40;;;23.50;33.50;;;;;;5103942;28;27354;-58
2021/04/27 11:43:49;;;;;;;6.20;4.88;;;23.50;33.20;;;;;;5103638;28;27336;-57
2021/04/27 11:46:56;;;;;;;6.88;4.72;;;23.50;32.60;;;;;;5100094;28;27352;-58
2021/04/27 11:50:24;;;;;;;7.95;4.90;;;23.50;34.70;;;;;;5101595;27;27733;-58
2021/04/27 11:53:31;;;;;;;9.13;5.68;;;23.50;35.90;;;;;;5103177;28;27513;-58
2021/04/27 11:56:48;;;;;;;7.35;5.45;;;23.50;33.10;;;;;;5100397;28;27403;-58
2021/04/27 12:00:00;;;;;;;8.23;5.22;;;23.50;33.00;;;;;;5107543;28;27406;-58
2021/04/27 12:03:17;;;;;;;8.75;5.25;;;23.40;35.70;;;;;;5106341;28;27631;-58
2021/04/27 12:06:50;;;;;;;7.30;4.38;;;23.50;35.00;;;;;;5106847;28;27620;-58
2021/04/27 12:09:52;;;;;;;7.25;4.57;;;23.70;40.40;;;;;;5107122;28;27354;-58
2021/04/27 12:13:20;;;;;;;6.70;5.18;;;23.90;32.00;;;;;;5106513;28;27410;-57
2021/04/27 12:16:31;;;;;;;7.75;4.80;;;23.90;35.10;;;;;;5106789;28;27852;-58
2021/04/27 12:19:36;;;;;;;5.70;4.65;;;23.90;37.10;;;;;;5106798;28;27438;-58
2021/04/27 12:22:51;;;;;;;5.50;4.25;;;23.80;36.50;;;;;;5105786;28;27481;-58
2021/04/27 12:26:18;;;;;;;5.28;4.50;;;23.90;37.30;;;;;;5106911;28;27397;-58
2021/04/27 12:29:39;;;;;;;5.95;4.22;;;23.90;37.50;;;;;;5106521;28;27366;-57
2021/04/27 12:32:56;;;;;;;6.03;4.15;;;24.00;35.50;;;;;;5107100;28;27355;-57
2021/04/27 12:36:24;;;;;;;9.40;5.55;;;24.00;37.30;;;;;;5106752;28;27465;-57
2021/04/27 12:40:13;;;;;;;13.07;6.13;;;23.90;34.90;;;;;;5103095;28;27460;-57
2021/04/27 12:43:07;;;;;;;9.45;5.53;;;23.60;32.50;;;;;;5106370;28;28038;-58
2021/04/27 12:46:08;;;;;;;9.90;6.03;;;23.40;35.80;;;;;;5106495;28;27387;-58
2021/04/27 12:49:08;;;;;;;10.98;5.97;;;23.30;37.30;;;;;;5105887;28;27651;-58
2021/04/27 12:52:14;;;;;;;6.65;4.93;;;23.20;37.00;;;;;;5106371;28;27301;-58
2021/04/27 12:55:06;;;;;;;11.48;5.80;;;23.10;41.70;;;;;;5106541;28;27335;-57
2021/04/27 12:58:19;;;;;;;8.02;5.50;;;23.20;40.10;;;;;;5106373;28;27402;-58
2021/04/27 13:01:04;;;;;;;7.57;5.65;;;23.20;39.00;;;;;;5106288;28;27527;-57
2021/04/27 13:03:59;;;;;;;5.47;4.63;;;23.30;41.40;;;;;;5106687;28;27473;-58
2021/04/27 13:06:58;;;;;;;11.75;5.28;;;23.40;39.30;;;;;;5106210;27;27891;-59
2021/04/27 13:10:13;;;;;;;11.90;5.07;;;23.50;36.70;;;;;;5105708;28;27361;-57
2021/04/27 13:12:57;;;;;;;8.88;5.00;;;23.40;34.40;;;;;;5102827;28;27417;-57
2021/04/27 13:16:08;;;;;;;5.80;5.15;;;23.40;42.30;;;;;;5106121;28;27399;-57
2021/04/27 13:19:03;;;;;;;6.10;5.07;;;23.40;39.40;;;;;;5105260;28;27966;-57
2021/04/27 13:22:31;;;;;;;5.75;5.05;;;23.50;39.10;;;;;;5106140;28;27423;-57
2021/04/27 13:25:44;;;;;;;8.55;4.90;;;23.40;33.90;;;;;;5105690;28;27485;-57
2021/04/27 13:28:54;;;;;;;6.57;4.82;;;23.30;39.10;;;;;;5106277;28;27462;-57
2021/04/27 13:32:01;;;;;;;5.68;4.05;;;23.30;35.90;;;;;;5106207;28;27946;-57
2021/04/27 13:35:20;;;;;;;9.15;5.60;;;23.20;36.40;;;;;;5091782;28;27491;-57
2021/04/27 13:38:30;;;;;;;5.18;4.20;;;23.20;37.80;;;;;;5105246;28;27435;-57
2021/04/27 13:41:56;;;;;;;6.47;4.38;;;23.20;40.80;;;;;;5105624;28;27323;-57
2021/04/27 13:45:31;;;;;;;6.18;5.57;;;23.30;37.20;;;;;;5105905;28;27397;-57
2021/04/27 13:49:26;;;;;;;7.18;5.22;;;23.40;33.30;;;;;;5104235;28;27372;-58
2021/04/27 13:52:57;;;;;;;7.28;4.88;;;23.30;34.30;;;;;;5090364;28;27467;-57
2021/04/27 13:56:03;;;;;;;6.18;4.78;;;23.20;36.20;;;;;;5104913;28;27359;-57
2021/04/27 13:59:30;;;;;;;7.50;5.32;;;23.10;37.20;;;;;;5104594;28;27386;-57
2021/04/27 14:03:15;;;;;;;5.78;4.40;;;23.10;38.30;;;;;;5105468;28;27404;-57
2021/04/27 14:07:23;;;;;;;5.00;3.90;;;23.10;40.90;;;;;;5103810;28;27402;-57
2021/04/27 14:10:36;;;;;;;5.97;4.82;;;23.10;39.60;;;;;;5104076;28;27438;-57
2021/04/27 14:13:54;;;;;;;6.68;4.57;;;23.30;37.10;;;;;;5105145;28;27473;-57
2021/04/27 14:17:02;;;;;;;5.25;3.72;;;23.40;36.80;;;;;;5105025;28;27396;-57
2021/04/27 14:19:57;;;;;;;6.50;4.97;;;23.40;36.10;;;;;;5103016;27;27383;-57
2021/04/27 14:23:11;;;;;;;7.10;5.15;;;23.30;35.90;;;;;;5104890;28;27391;-57
2021/04/27 14:25:57;;;;;;;11.88;5.60;;;23.20;35.00;;;;;;5105199;28;27363;-57
2021/04/27 14:29:22;;;;;;;6.70;4.13;;;23.10;33.70;;;;;;5104939;28;27360;-54
2021/04/27 14:32:09;;;;;;;7.85;5.13;;;22.90;37.80;;;;;;5105169;28;27343;-56
2021/04/27 14:35:37;;;;;;;6.05;3.42;;;22.80;36.20;;;;;;5101889;28;27299;-56
2021/04/27 14:39:27;;;;;;;9.32;4.38;;;22.80;38.40;;;;;;5102042;28;27466;-56
2021/04/27 14:42:55;;;;;;;7.85;5.45;;;22.80;36.30;;;;;;5100728;28;27348;-56
2021/04/27 14:46:41;;;;;;;4.15;3.70;;;22.80;32.10;;;;;;5104404;28;27453;-56
2021/04/27 14:50:25;;;;;;;7.18;4.22;;;22.70;37.60;;;;;;5101381;28;27393;-57
2021/04/27 14:53:37;;;;;;;7.70;4.40;;;22.70;38.60;;;;;;5104012;28;28089;-56
2021/04/27 14:57:04;;;;;;;6.50;4.45;;;22.80;35.40;;;;;;5104507;28;27375;-56
2021/04/27 15:00:35;;;;;;;6.22;4.30;;;22.90;36.50;;;;;;5104126;28;27414;-56
2021/04/27 15:03:48;;;;;;;11.32;3.30;;;23.00;35.00;;;;;;5103652;28;26996;-56
2021/04/27 15:07:02;;;;;;;6.10;3.35;;;23.10;37.60;;;;;;5104418;28;27466;-56
2021/04/27 15:10:09;;;;;;;9.27;4.65;;;23.10;36.60;;;;;;5104350;28;27497;-57
2021/04/27 15:13:21;;;;;;;9.43;3.78;;;23.10;34.30;;;;;;5101150;28;27471;-57
2021/04/27 15:16:26;;;;;;;6.38;4.28;;;23.10;35.80;;;;;;5101278;28;27451;-56
2021/04/27 15:19:41;;;;;;;3.90;3.50;;;23.10;33.60;;;;;;5104173;28;27316;-57
2021/04/27 15:23:17;;;;;;;4.65;3.53;;;23.10;35.40;;;;;;5100812;28;27362;-56
2021/04/27 15:26:32;;;;;;;5.82;3.13;;;23.20;35.10;;;;;;5074302;28;27461;-57
2021/04/27 15:29:39;;;;;;;5.40;4.15;;;23.10;35.40;;;;;;5104505;28;27472;-57
2021/04/27 15:33:06;;;;;;;4.47;3.45;;;23.10;34.40;;;;;;5107068;28;27483;-55
2021/04/27 15:36:18;;;;;;;5.55;4.10;;;23.10;33.60;;;;;;5103831;28;27439;-55
2021/04/27 15:39:43;;;;;;;5.40;3.53;;;23.00;32.40;;;;;;5107697;28;27473;-56
2021/04/27 15:43:10;;;;;;;6.35;3.40;;;22.90;35.80;;;;;;5107023;28;27580;-56
2021/04/27 15:46:09;;;;;;;6.35;4.13;;;22.90;35.80;;;;;;5106660;28;27423;-56
2021/04/27 15:49:19;;;;;;;4.97;3.78;;;22.90;33.80;;;;;;5106715;28;27458;-56
2021/04/27 15:52:47;;;;;;;6.53;3.47;;;22.80;32.90;;;;;;5107413;28;27434;-56
2021/04/27 15:56:13;;;;;;;4.55;2.70;;;22.80;35.60;;;;;;5103674;28;27454;-56
2021/04/27 15:59:40;;;;;;;7.97;4.10;;;22.80;35.30;;;;;;5107227;28;27323;-55
2021/04/27 16:02:50;;;;;;;6.05;3.45;;;22.80;33.60;;;;;;5106912;28;27384;-55
2021/04/27 16:05:57;;;;;;;3.97;3.58;;;22.70;35.60;;;;;;5107249;28;27476;-54
2021/04/27 16:08:51;;;;;;;6.63;4.10;;;22.60;31.00;;;;;;5105577;28;27383;-55
2021/04/27 16:12:06;;;;;;;7.55;4.30;;;22.50;31.90;;;;;;5107502;28;27374;-55
2021/04/27 16:15:34;;;;;;;7.38;4.45;;;22.40;33.20;;;;;;5077365;28;27504;-55
2021/04/27 16:18:59;;;;;;;5.57;3.78;;;22.30;32.80;;;;;;5107664;28;27417;-55
2021/04/27 16:22:10;;;;;;;6.95;3.92;;;22.30;34.60;;;;;;5107120;28;27433;-55
2021/04/27 16:24:54;;;;;;;5.63;3.83;;;22.20;33.30;;;;;;5105316;28;27832;-54
2021/04/27 16:28:00;;;;;;;4.35;3.58;;;22.20;34.10;;;;;;5106960;28;27434;-56
2021/04/27 16:31:06;;;;;;;5.07;3.80;;;22.10;33.40;;;;;;5105825;28;27451;-54
2021/04/27 16:34:19;;;;;;;10.43;4.80;;;22.00;32.90;;;;;;5106795;28;27415;-56
2021/04/27 16:37:46;;;;;;;9.80;4.40;;;21.90;34.50;;;;;;5106619;28;27605;-56
2021/04/27 16:40:43;;;;;;;6.10;3.85;;;21.90;37.10;;;;;;5106188;28;27427;-56
2021/04/27 16:43:50;;;;;;;5.43;3.10;;;21.90;36.60;;;;;;5105842;27;27394;-55
2021/04/27 16:47:17;;;;;;;5.10;3.80;;;21.90;36.70;;;;;;5106059;28;27402;-56
2021/04/27 16:50:28;;;;;;;5.47;3.50;;;21.90;34.30;;;;;;5105308;28;27461;-56
2021/04/27 16:53:25;;;;;;;5.78;3.70;;;21.90;35.40;;;;;;5105166;28;27439;-56
2021/04/27 16:56:31;;;;;;;4.80;3.25;;;21.90;35.70;;;;;;5106503;28;27451;-55
2021/04/27 16:59:28;;;;;;;4.10;3.70;;;21.90;36.40;;;;;;5106278;28;27375;-55
2021/04/27 17:02:34;;;;;;;4.00;3.60;;;21.90;34.00;;;;;;5105888;28;27859;-55
2021/04/27 17:05:28;;;;;;;4.97;3.17;;;21.90;33.00;;;;;;5106046;28;27413;-54
2021/04/27 17:08:46;;;;;;;7.10;3.65;;;21.80;32.80;;;;;;5105570;28;27444;-55